岡山グライダークラブ活動状況掲示板あなたは無料カウンター人目の訪問者です

岡山グライダークラブ
岡山市浦安南町639-1 岡南飛行場
 使用機:シャイベ式 SF25C型 ファルケ   JA2330
      ヴァレンティン式17E型 タイフーン  JA2342
 練習日:毎日曜日  クラブルーム:電話 086-265-1810
この掲示板は岡山グライダークラブの活動状況をお知らせする掲示板です。
!!!この掲示板は投稿規制をしています。!!!
クラブ関連各種情報は 岡山グライダークラブクラブルーム      を       .
  ブリーフイング情報は  岡山グライダークラブブリーフィングルーム  をご覧下さい。 .
※写真はクリックすると拡大して見ることが出来ます。
岡南飛行場へのアクセス等は 岡南飛行場管理事務所 をご覧ください。
クラブの ホームページ ができました。

 
07月19日
by OGC at 2020/7/19(日) 23:27:32 No.20200719232113  削除コメント
1024 x 768 x 65,793バイト
No.1

07月19日
本日の参加者
  会員      16名
  その他      0名


@本日の様子






METAR
RJBK 190000Z VRB02KT 20KM FEW015CU SCT025CU 27/23 Q1010 A2985
RJOB 190000Z VRB03KT 9999 FEW010 SCT015 26/22 Q1012
RJOT 190000Z VRB02KT 9999 FEW015 SCT140 26/22 Q1012
RJOA 190000Z VRB02KT CAVOK 24/20 Q1012
TAF
RJOB 182309Z 1900/2006 13004KT 9999 FEW015 SCT035
     BECMG 1901/1903 22005KT
     BECMG 1912/1915 05005KT
     BECMG 1921/2000 22005KT
RJOT 182317Z 1900/2006 04006KT 9999 FEW015 SCT050
     TEMPO 1912/1915 4000 -SHRA BR FEW002 SCT005 BKN008
     BECMG 1921/2000 33004KT
RJOA 182308Z 1900/2006 14005KT 9999 FEW020 BKN035
     BECMG 1902/1904 20004KT
     TEMPO 1911/1915 4000 -SHRA BR FEW002 SCT004 BKN008
     TEMPO 1915/1921 3000 BR FEW001 SCT002 BKN004
     TEMPO 1921/2000 4000 BR FEW002 SCT004 BKN008

本日は曇りで風は弱く絶好の着陸練習日和、訓練生はTGL訓練、一方、タイフーンは耐空検査前の整備業務を行いました。



解散    18:00

1番機  10:50離陸 撤収機  17:35着陸 

SF25C JA2330 ファルケ     11Flt.3h25hmin  
17E   JA2342 タイフーン    00Flt.0h00min  
合計                    15Flt.3h25min


    << 戻る || ホームページ || 最新の掲示板へ